FXMM

Moshoeshoe I International Airport

Maseru, Lesotho
METAR FXMM 181500Z 27004KT 9999 FEW035 BKN/// 26/10 Q1021 NOSIG
Observed Flight Rules
Dec-18 @ 15:00 UTC (3 hours ago) Visual Flight Rules
Wind Visibility Clouds
270° at 4 knots 10,000+ meters
  • Few at 3,500' AGL
Temperatures Readings
Current 26°C / 79°F
Dewpoint 10°C / 50°F
Humidity 37%
Altimeter 30.15" Hg
Pressure 1021 hPa
Elevation 1631
METAR FXMM 181500Z 27004KT 9999 FEW035 BKN/// 26/10 Q1021 NOSIG
Observed Flight Rules
Dec-18 @ 15:00 UTC
(3 hours ago)
VFR
Wind Visibility
270° at 4 knots 10,000+ meters
Clouds
  • Few at 3,500' AGL
Temperature Dewpoint
26°C / 79°F 10°C / 50°F
Humidity Altimeter Pressure
37% 30.15" Hg 1021 hPa